AirNav   TITAN Aviation Fuels
 
 943 users online  

MO43 Wilkins Airport
Montgomery City, Missouri, USA

GOING TO MONTGOMERY CITY?


FAA INFORMATION EFFECTIVE 03 NOVEMBER 2022

Location

FAA Identifier: MO43
Lat/Long: 38-58-07.3250N 091-26-35.9000W
38-58.122083N 091-26.598333W
38.9687014,-91.4433056
(estimated)
Elevation: 843 ft. / 257 m (estimated)
Variation: 01E (2000)
From city: 3 miles E of MONTGOMERY CITY, MO
Time zone: UTC -6 (UTC -5 during Daylight Saving Time)
Zip code: 63361

Airport Operations

Airport use: Private use. Permission required prior to landing
Activation date: 12/2000
Control tower: no
ARTCC: KANSAS CITY CENTER
FSS: SAINT LOUIS FLIGHT SERVICE STATION
Attendance: UNATNDD
Wind indicator: yes
Segmented circle: no

Nearby radio navigation aids

VOR radial/distance  VOR name  Freq  Var
FTZr302/27.5FORISTELL VORTAC110.8005E
HLVr099/33.1HALLSVILLE VORTAC114.2006E
COUr075/37.4COLUMBIA VOR/DME110.2000E

Airport Services

Runway Information

Runway 2/20

Dimensions: 2670 x 50 ft. / 814 x 15 m
Surface: turf
Runway edge markings: RY 02/20 OUTLINED WITH ORANGE CONES.
RUNWAY 2  RUNWAY 20
Latitude: 38-57.910333N38-58.333833N
Longitude: 091-26.674333W091-26.522333W
Elevation: 843.0 ft.831.0 ft.
Traffic pattern: leftleft
Obstructions: 20 ft. pline, marked, 100 ft. from runwaynone

Airport Ownership and Management from official FAA records

Ownership: Privately-owned
Owner: JOHN K. WILKINS
65 SUNBEAM ROAD
MONTGOMERY CITY, MO 63361
Phone (636) 290-8657
Manager: JOHN K. WILKINS
65 SUNBEAM ROAD
MONTGOMERY CITY, MO 63361
Phone (636) 290-8657

Airport Operational Statistics

Aircraft based on the field: 2
Single engine airplanes: 2
    

Additional Remarks

FOR CD CTC MIZZOU APCH AT 417-868-5620/5619.

Instrument Procedures

There are no published instrument procedures at MO43.

Some nearby airports with instrument procedures:

KMYJ - Mexico Memorial Airport (21 nm NW)
H19 - Bowling Green Municipal Airport (26 nm NE)
KFTT - Elton Hensley Memorial Airport (27 nm W)
KFYG - Washington Regional Airport (31 nm SE)
KCOU - Columbia Regional Airport (37 nm W)
 
Loc | Ops | Rwys | IFR | FBO | Links
Com | Nav | Svcs | Stats | Notes
Area around MO43 (Wilkins Airport)
 
Road maps at: MapQuest Bing Google
 
Aerial photo
No photo
 
Sectional chart

 
Airport distance calculator
Flying to Wilkins Airport? Find the distance to fly.

From to MO43

Sunrise and sunset
Times for 29-Nov-2022
 Local
(UTC-6)
 Zulu
(UTC)
Morning civil twilight06:3512:35
Sunrise07:0513:05
Sunset16:4422:44
Evening civil twilight17:1323:13

Current date and time
Zulu (UTC)  30-Nov-2022 02:21:08
Local (UTC-6)  29-Nov-2022 20:21:08
 
METAR
KMYJ 
21nm NW 
300155Z AUTO 29023G30KT 10SM 00/M02 A2982 RMK AO2
KFYG 
31nm SE 
300155Z AUTO 29020G27KT 10SM FEW027 SCT033 SCT070 07/03 A2977 RMK AO2
KCOU 
37nm W 
300154Z 30019G27KT 10SM OVC019 02/M03 A2985 RMK AO2 PK WND 31033/0125 SLP109 T00171028
KJEF 
40nm SW 
300153Z 30021G31KT 10SM OVC021 03/M02 A2986 RMK AO2 PK WND 31031/0152 SLP103 T00331022 $
TAF
KCOU 
37nm W 
292123Z 2921/3018 27016G29KT P6SM BKN045 FM292300 28015G29KT P6SM BKN025 FM300100 30016G26KT P6SM SCT025
KJEF 
40nm SW 
292123Z 2921/3018 26016G29KT P6SM BKN045 FM292300 28015G29KT P6SM BKN025 FM300100 30015G25KT P6SM SCT025
KSUS 
42nm SE 
292057Z 2921/3018 19015G30KT P6SM SCT030 BKN045 FM292300 22013G24KT P6SM VCSH SCT025 BKN040 FM300200 29014G27KT P6SM BKN040 FM300400 30015G26KT P6SM SCT030
NOTAMs
Click for the latest NOTAMs
NOTAMs are issued by the DoD/FAA and will open in a separate window not controlled by AirNav.

 

 
 

Would you like to see your business listed on this page?

 If your business provides an interesting product or service to pilots, flight crews, aircraft, or users of the Wilkins Airport, you should consider listing it here.  To start the listing process, click on the button below
 
Add a business
 

Other Pages about Wilkins Airport

Update a link
 
Copyright © AirNav, LLC. All rights reserved. Privacy Policy  Contact